sensor_id;sensor_type;location;lat;lon;timestamp;temperature;humidity
37806;DHT22;25082;50.870;0.022;2023-07-02T00:01:46;21.10;67.40
37806;DHT22;25082;50.870;0.022;2023-07-02T00:04:13;21.10;67.50
37806;DHT22;25082;50.870;0.022;2023-07-02T00:06:42;21.10;67.40
37806;DHT22;25082;50.870;0.022;2023-07-02T00:09:08;21.10;67.40
37806;DHT22;25082;50.870;0.022;2023-07-02T00:11:38;21.10;67.40
37806;DHT22;25082;50.870;0.022;2023-07-02T00:14:05;21.10;67.50
37806;DHT22;25082;50.870;0.022;2023-07-02T00:16:30;21.10;67.50
37806;DHT22;25082;50.870;0.022;2023-07-02T00:18:56;21.10;67.50
37806;DHT22;25082;50.870;0.022;2023-07-02T00:21:22;21.10;67.50
37806;DHT22;25082;50.870;0.022;2023-07-02T00:23:54;21.10;67.50
37806;DHT22;25082;50.870;0.022;2023-07-02T00:26:23;21.00;67.50
37806;DHT22;25082;50.870;0.022;2023-07-02T00:28:49;21.10;67.60
37806;DHT22;25082;50.870;0.022;2023-07-02T00:31:15;21.00;67.50
37806;DHT22;25082;50.870;0.022;2023-07-02T00:33:41;21.00;67.50
37806;DHT22;25082;50.870;0.022;2023-07-02T00:36:07;21.10;67.60
37806;DHT22;25082;50.870;0.022;2023-07-02T00:38:32;21.10;67.60
37806;DHT22;25082;50.870;0.022;2023-07-02T00:40:58;21.00;67.50
37806;DHT22;25082;50.870;0.022;2023-07-02T00:43:24;21.10;67.60
37806;DHT22;25082;50.870;0.022;2023-07-02T00:45:50;21.00;67.50
37806;DHT22;25082;50.870;0.022;2023-07-02T00:48:16;21.00;67.50
37806;DHT22;25082;50.870;0.022;2023-07-02T00:50:41;21.10;67.60
37806;DHT22;25082;50.870;0.022;2023-07-02T00:53:07;21.00;67.60
37806;DHT22;25082;50.870;0.022;2023-07-02T00:55:33;21.00;67.60
37806;DHT22;25082;50.870;0.022;2023-07-02T00:57:59;21.00;67.60
37806;DHT22;25082;50.870;0.022;2023-07-02T01:00:24;21.00;67.60
37806;DHT22;25082;50.870;0.022;2023-07-02T01:02:54;21.00;67.60
37806;DHT22;25082;50.870;0.022;2023-07-02T01:05:25;21.00;67.70
37806;DHT22;25082;50.870;0.022;2023-07-02T01:07:51;21.00;67.70
37806;DHT22;25082;50.870;0.022;2023-07-02T01:10:17;21.00;67.70
37806;DHT22;25082;50.870;0.022;2023-07-02T01:12:44;21.00;67.70
37806;DHT22;25082;50.870;0.022;2023-07-02T01:15:10;21.00;67.70
37806;DHT22;25082;50.870;0.022;2023-07-02T01:17:36;21.00;67.70
37806;DHT22;25082;50.870;0.022;2023-07-02T01:20:09;21.00;67.70
37806;DHT22;25082;50.870;0.022;2023-07-02T01:22:35;21.00;67.80
37806;DHT22;25082;50.870;0.022;2023-07-02T01:25:01;21.00;67.80
37806;DHT22;25082;50.870;0.022;2023-07-02T01:27:28;21.00;67.80
37806;DHT22;25082;50.870;0.022;2023-07-02T01:29:55;21.00;67.80
37806;DHT22;25082;50.870;0.022;2023-07-02T01:32:21;21.00;67.80
37806;DHT22;25082;50.870;0.022;2023-07-02T01:34:48;21.00;67.90
37806;DHT22;25082;50.870;0.022;2023-07-02T01:37:18;21.00;67.80
37806;DHT22;25082;50.870;0.022;2023-07-02T01:39:44;21.00;67.90
37806;DHT22;25082;50.870;0.022;2023-07-02T01:42:12;21.00;67.90
37806;DHT22;25082;50.870;0.022;2023-07-02T01:44:40;21.00;67.90
37806;DHT22;25082;50.870;0.022;2023-07-02T01:47:05;21.00;67.90
37806;DHT22;25082;50.870;0.022;2023-07-02T01:49:31;20.90;67.80
37806;DHT22;25082;50.870;0.022;2023-07-02T01:51:58;20.90;67.80
37806;DHT22;25082;50.870;0.022;2023-07-02T01:54:26;21.00;67.90
37806;DHT22;25082;50.870;0.022;2023-07-02T01:56:55;21.00;67.90
37806;DHT22;25082;50.870;0.022;2023-07-02T01:59:21;21.00;67.90
37806;DHT22;25082;50.870;0.022;2023-07-02T02:01:47;20.90;67.90
37806;DHT22;25082;50.870;0.022;2023-07-02T02:04:13;20.90;67.90
37806;DHT22;25082;50.870;0.022;2023-07-02T02:06:39;20.90;67.90
37806;DHT22;25082;50.870;0.022;2023-07-02T02:09:06;21.00;67.90
37806;DHT22;25082;50.870;0.022;2023-07-02T02:11:33;20.90;67.80
37806;DHT22;25082;50.870;0.022;2023-07-02T02:13:59;21.00;67.90
37806;DHT22;25082;50.870;0.022;2023-07-02T02:16:28;20.90;67.90
37806;DHT22;25082;50.870;0.022;2023-07-02T02:18:54;20.90;67.90
37806;DHT22;25082;50.870;0.022;2023-07-02T02:21:20;20.90;68.00
37806;DHT22;25082;50.870;0.022;2023-07-02T02:23:47;20.90;67.90
37806;DHT22;25082;50.870;0.022;2023-07-02T02:26:13;20.90;67.90
37806;DHT22;25082;50.870;0.022;2023-07-02T02:28:39;20.90;68.00
37806;DHT22;25082;50.870;0.022;2023-07-02T02:31:05;20.90;68.00
37806;DHT22;25082;50.870;0.022;2023-07-02T02:33:31;20.90;68.00
37806;DHT22;25082;50.870;0.022;2023-07-02T02:35:57;20.90;68.10
37806;DHT22;25082;50.870;0.022;2023-07-02T02:38:23;20.90;68.00
37806;DHT22;25082;50.870;0.022;2023-07-02T02:40:48;20.90;68.00
37806;DHT22;25082;50.870;0.022;2023-07-02T02:43:14;20.90;68.10
37806;DHT22;25082;50.870;0.022;2023-07-02T02:45:42;20.90;68.00
37806;DHT22;25082;50.870;0.022;2023-07-02T02:48:08;20.90;68.10
37806;DHT22;25082;50.870;0.022;2023-07-02T02:50:34;20.90;68.10
37806;DHT22;25082;50.870;0.022;2023-07-02T02:52:59;20.90;68.10
37806;DHT22;25082;50.870;0.022;2023-07-02T02:55:25;20.90;68.10
37806;DHT22;25082;50.870;0.022;2023-07-02T02:57:52;20.90;68.10
37806;DHT22;25082;50.870;0.022;2023-07-02T03:00:17;20.90;68.10
37806;DHT22;25082;50.870;0.022;2023-07-02T03:02:43;20.90;68.10
37806;DHT22;25082;50.870;0.022;2023-07-02T03:05:09;20.90;68.10
37806;DHT22;25082;50.870;0.022;2023-07-02T03:07:37;20.90;68.10
37806;DHT22;25082;50.870;0.022;2023-07-02T03:10:03;20.90;68.10
37806;DHT22;25082;50.870;0.022;2023-07-02T03:12:29;20.90;68.10
37806;DHT22;25082;50.870;0.022;2023-07-02T03:14:55;20.80;68.10
37806;DHT22;25082;50.870;0.022;2023-07-02T03:17:21;20.80;68.10
37806;DHT22;25082;50.870;0.022;2023-07-02T03:19:47;20.80;68.10
37806;DHT22;25082;50.870;0.022;2023-07-02T03:22:13;20.80;68.10
37806;DHT22;25082;50.870;0.022;2023-07-02T03:24:38;20.80;68.10
37806;DHT22;25082;50.870;0.022;2023-07-02T03:27:04;20.80;68.10
37806;DHT22;25082;50.870;0.022;2023-07-02T03:29:31;20.80;68.10
37806;DHT22;25082;50.870;0.022;2023-07-02T03:31:57;20.80;68.10
37806;DHT22;25082;50.870;0.022;2023-07-02T03:34:23;20.80;68.10
37806;DHT22;25082;50.870;0.022;2023-07-02T03:36:49;20.80;68.10
37806;DHT22;25082;50.870;0.022;2023-07-02T03:39:15;20.80;68.10
37806;DHT22;25082;50.870;0.022;2023-07-02T03:41:42;20.80;68.10
37806;DHT22;25082;50.870;0.022;2023-07-02T03:44:07;20.80;68.20
37806;DHT22;25082;50.870;0.022;2023-07-02T03:46:33;20.80;68.10
37806;DHT22;25082;50.870;0.022;2023-07-02T03:48:59;20.80;68.20
37806;DHT22;25082;50.870;0.022;2023-07-02T03:51:25;20.80;68.20
37806;DHT22;25082;50.870;0.022;2023-07-02T03:53:50;20.80;68.20
37806;DHT22;25082;50.870;0.022;2023-07-02T03:56:16;20.80;68.20
37806;DHT22;25082;50.870;0.022;2023-07-02T03:58:42;20.80;68.20
37806;DHT22;25082;50.870;0.022;2023-07-02T04:01:08;20.80;68.20
37806;DHT22;25082;50.870;0.022;2023-07-02T04:03:34;20.80;68.20
37806;DHT22;25082;50.870;0.022;2023-07-02T04:05:59;20.80;68.20
37806;DHT22;25082;50.870;0.022;2023-07-02T04:08:25;20.80;68.20
37806;DHT22;25082;50.870;0.022;2023-07-02T04:10:54;20.80;68.30
37806;DHT22;25082;50.870;0.022;2023-07-02T04:13:19;20.80;68.30
37806;DHT22;25082;50.870;0.022;2023-07-02T04:15:45;20.80;68.30
37806;DHT22;25082;50.870;0.022;2023-07-02T04:18:11;20.80;68.30
37806;DHT22;25082;50.870;0.022;2023-07-02T04:20:37;20.80;68.30
37806;DHT22;25082;50.870;0.022;2023-07-02T04:23:06;20.80;68.30
37806;DHT22;25082;50.870;0.022;2023-07-02T04:25:31;20.80;68.30
37806;DHT22;25082;50.870;0.022;2023-07-02T04:27:57;20.80;68.30
37806;DHT22;25082;50.870;0.022;2023-07-02T04:30:24;20.80;68.30
37806;DHT22;25082;50.870;0.022;2023-07-02T04:32:51;20.70;68.20
37806;DHT22;25082;50.870;0.022;2023-07-02T04:35:17;20.80;68.30
37806;DHT22;25082;50.870;0.022;2023-07-02T04:37:43;20.80;68.30
37806;DHT22;25082;50.870;0.022;2023-07-02T04:40:10;20.70;68.20
37806;DHT22;25082;50.870;0.022;2023-07-02T04:42:39;20.70;68.20
37806;DHT22;25082;50.870;0.022;2023-07-02T04:45:06;20.70;68.20
37806;DHT22;25082;50.870;0.022;2023-07-02T04:47:32;20.70;68.20
37806;DHT22;25082;50.870;0.022;2023-07-02T04:49:59;20.70;68.30
37806;DHT22;25082;50.870;0.022;2023-07-02T04:52:24;20.70;68.20
37806;DHT22;25082;50.870;0.022;2023-07-02T04:54:50;20.70;68.30
37806;DHT22;25082;50.870;0.022;2023-07-02T04:57:16;20.70;68.30
37806;DHT22;25082;50.870;0.022;2023-07-02T04:59:42;20.70;68.30
37806;DHT22;25082;50.870;0.022;2023-07-02T05:02:08;20.70;68.20
37806;DHT22;25082;50.870;0.022;2023-07-02T05:04:35;20.70;68.30
37806;DHT22;25082;50.870;0.022;2023-07-02T05:07:00;20.70;68.30
37806;DHT22;25082;50.870;0.022;2023-07-02T05:09:26;20.70;68.30
37806;DHT22;25082;50.870;0.022;2023-07-02T05:11:52;20.70;68.20
37806;DHT22;25082;50.870;0.022;2023-07-02T05:14:17;20.70;68.20
37806;DHT22;25082;50.870;0.022;2023-07-02T05:16:43;20.70;68.30
37806;DHT22;25082;50.870;0.022;2023-07-02T05:19:09;20.70;68.30
37806;DHT22;25082;50.870;0.022;2023-07-02T05:21:35;20.70;68.30
37806;DHT22;25082;50.870;0.022;2023-07-02T05:24:01;20.70;68.30
37806;DHT22;25082;50.870;0.022;2023-07-02T05:26:26;20.70;68.30
37806;DHT22;25082;50.870;0.022;2023-07-02T05:28:53;20.60;68.30
37806;DHT22;25082;50.870;0.022;2023-07-02T05:31:18;20.70;68.30
37806;DHT22;25082;50.870;0.022;2023-07-02T05:33:44;20.70;68.30
37806;DHT22;25082;50.870;0.022;2023-07-02T05:36:10;20.70;68.30
37806;DHT22;25082;50.870;0.022;2023-07-02T05:38:36;20.70;68.30
37806;DHT22;25082;50.870;0.022;2023-07-02T05:41:03;20.60;68.30
37806;DHT22;25082;50.870;0.022;2023-07-02T05:43:29;20.70;68.30
37806;DHT22;25082;50.870;0.022;2023-07-02T05:45:57;20.70;68.40
37806;DHT22;25082;50.870;0.022;2023-07-02T05:48:26;20.60;68.30
37806;DHT22;25082;50.870;0.022;2023-07-02T05:50:53;20.70;68.40
37806;DHT22;25082;50.870;0.022;2023-07-02T05:53:19;20.70;68.40
37806;DHT22;25082;50.870;0.022;2023-07-02T05:55:44;20.70;68.40
37806;DHT22;25082;50.870;0.022;2023-07-02T05:58:10;20.60;68.30
37806;DHT22;25082;50.870;0.022;2023-07-02T06:00:36;20.60;68.30
37806;DHT22;25082;50.870;0.022;2023-07-02T06:03:02;20.60;68.30
37806;DHT22;25082;50.870;0.022;2023-07-02T06:05:28;20.60;68.30
37806;DHT22;25082;50.870;0.022;2023-07-02T06:07:54;20.60;68.30
37806;DHT22;25082;50.870;0.022;2023-07-02T06:10:19;20.60;68.30
37806;DHT22;25082;50.870;0.022;2023-07-02T06:12:45;20.60;68.30
37806;DHT22;25082;50.870;0.022;2023-07-02T06:15:11;20.60;68.30
37806;DHT22;25082;50.870;0.022;2023-07-02T06:17:37;20.60;68.30
37806;DHT22;25082;50.870;0.022;2023-07-02T06:20:04;20.60;68.30
37806;DHT22;25082;50.870;0.022;2023-07-02T06:22:30;20.60;68.40
37806;DHT22;25082;50.870;0.022;2023-07-02T06:24:56;20.60;68.40
37806;DHT22;25082;50.870;0.022;2023-07-02T06:27:22;20.60;68.40
37806;DHT22;25082;50.870;0.022;2023-07-02T06:29:47;20.60;68.30
37806;DHT22;25082;50.870;0.022;2023-07-02T06:32:13;20.60;68.40
37806;DHT22;25082;50.870;0.022;2023-07-02T06:34:39;20.60;68.30
37806;DHT22;25082;50.870;0.022;2023-07-02T06:37:05;20.60;68.30
37806;DHT22;25082;50.870;0.022;2023-07-02T06:39:31;20.60;68.30
37806;DHT22;25082;50.870;0.022;2023-07-02T06:41:56;20.60;68.30
37806;DHT22;25082;50.870;0.022;2023-07-02T06:44:22;20.60;68.30
37806;DHT22;25082;50.870;0.022;2023-07-02T06:46:48;20.60;68.30
37806;DHT22;25082;50.870;0.022;2023-07-02T06:49:14;20.60;68.30
37806;DHT22;25082;50.870;0.022;2023-07-02T06:51:39;20.60;68.30
37806;DHT22;25082;50.870;0.022;2023-07-02T06:54:05;20.60;68.40
37806;DHT22;25082;50.870;0.022;2023-07-02T06:56:31;20.60;68.30
37806;DHT22;25082;50.870;0.022;2023-07-02T06:58:58;20.60;68.40
37806;DHT22;25082;50.870;0.022;2023-07-02T07:01:24;20.60;68.40
37806;DHT22;25082;50.870;0.022;2023-07-02T07:03:49;20.60;68.30
37806;DHT22;25082;50.870;0.022;2023-07-02T07:06:15;20.60;68.30
37806;DHT22;25082;50.870;0.022;2023-07-02T07:08:41;20.60;68.30
37806;DHT22;25082;50.870;0.022;2023-07-02T07:11:06;20.60;68.40
37806;DHT22;25082;50.870;0.022;2023-07-02T07:13:32;20.60;68.30
37806;DHT22;25082;50.870;0.022;2023-07-02T07:15:58;20.60;68.40
37806;DHT22;25082;50.870;0.022;2023-07-02T07:18:24;20.60;68.90
37806;DHT22;25082;50.870;0.022;2023-07-02T07:20:49;20.60;68.30
37806;DHT22;25082;50.870;0.022;2023-07-02T07:23:15;20.60;68.40
37806;DHT22;25082;50.870;0.022;2023-07-02T07:25:43;20.60;68.40
37806;DHT22;25082;50.870;0.022;2023-07-02T07:28:08;20.60;68.40
37806;DHT22;25082;50.870;0.022;2023-07-02T07:30:40;20.60;68.40
37806;DHT22;25082;50.870;0.022;2023-07-02T07:33:05;20.60;68.40
37806;DHT22;25082;50.870;0.022;2023-07-02T07:35:31;20.60;68.40
37806;DHT22;25082;50.870;0.022;2023-07-02T07:37:57;20.60;68.30
37806;DHT22;25082;50.870;0.022;2023-07-02T07:40:22;20.60;68.30
37806;DHT22;25082;50.870;0.022;2023-07-02T07:42:48;20.60;68.30
37806;DHT22;25082;50.870;0.022;2023-07-02T07:45:14;20.60;68.30
37806;DHT22;25082;50.870;0.022;2023-07-02T07:47:39;20.60;68.30
37806;DHT22;25082;50.870;0.022;2023-07-02T07:50:07;20.60;68.30
37806;DHT22;25082;50.870;0.022;2023-07-02T07:52:39;20.60;68.30
37806;DHT22;25082;50.870;0.022;2023-07-02T07:55:06;20.60;68.40
37806;DHT22;25082;50.870;0.022;2023-07-02T07:57:33;20.50;68.90
37806;DHT22;25082;50.870;0.022;2023-07-02T07:59:59;20.50;68.30
37806;DHT22;25082;50.870;0.022;2023-07-02T08:02:25;20.60;68.40
37806;DHT22;25082;50.870;0.022;2023-07-02T08:04:51;20.60;68.40
37806;DHT22;25082;50.870;0.022;2023-07-02T08:07:16;20.60;68.40
37806;DHT22;25082;50.870;0.022;2023-07-02T08:09:42;20.50;68.30
37806;DHT22;25082;50.870;0.022;2023-07-02T08:12:08;20.60;68.40
37806;DHT22;25082;50.870;0.022;2023-07-02T08:14:34;20.60;68.20
37806;DHT22;25082;50.870;0.022;2023-07-02T08:17:05;20.60;68.20
37806;DHT22;25082;50.870;0.022;2023-07-02T08:19:31;20.60;68.10
37806;DHT22;25082;50.870;0.022;2023-07-02T08:21:57;20.60;68.00
37806;DHT22;25082;50.870;0.022;2023-07-02T08:24:23;20.60;67.90
37806;DHT22;25082;50.870;0.022;2023-07-02T08:26:48;20.60;67.60
37806;DHT22;25082;50.870;0.022;2023-07-02T08:29:15;20.60;67.20
37806;DHT22;25082;50.870;0.022;2023-07-02T08:31:41;20.60;67.50
37806;DHT22;25082;50.870;0.022;2023-07-02T08:34:08;20.60;67.40
37806;DHT22;25082;50.870;0.022;2023-07-02T08:36:34;20.60;67.40
37806;DHT22;25082;50.870;0.022;2023-07-02T08:39:03;20.70;67.30
37806;DHT22;25082;50.870;0.022;2023-07-02T08:41:30;20.70;67.00
37806;DHT22;25082;50.870;0.022;2023-07-02T08:43:59;20.70;66.60
37806;DHT22;25082;50.870;0.022;2023-07-02T08:46:25;20.60;66.20
37806;DHT22;25082;50.870;0.022;2023-07-02T08:48:51;20.70;65.90
37806;DHT22;25082;50.870;0.022;2023-07-02T08:51:16;20.70;66.00
37806;DHT22;25082;50.870;0.022;2023-07-02T08:53:42;20.70;66.10
37806;DHT22;25082;50.870;0.022;2023-07-02T08:56:08;20.70;66.30
37806;DHT22;25082;50.870;0.022;2023-07-02T08:58:34;20.70;66.50
37806;DHT22;25082;50.870;0.022;2023-07-02T09:01:11;20.70;64.90
37806;DHT22;25082;50.870;0.022;2023-07-02T09:03:38;20.70;65.10
37806;DHT22;25082;50.870;0.022;2023-07-02T09:06:06;20.70;65.10
37806;DHT22;25082;50.870;0.022;2023-07-02T09:08:32;20.70;65.40
37806;DHT22;25082;50.870;0.022;2023-07-02T09:11:15;20.70;65.50
37806;DHT22;25082;50.870;0.022;2023-07-02T09:13:52;20.70;65.00
37806;DHT22;25082;50.870;0.022;2023-07-02T09:16:30;20.60;64.80
37806;DHT22;25082;50.870;0.022;2023-07-02T09:19:07;20.70;65.00
37806;DHT22;25082;50.870;0.022;2023-07-02T09:21:43;20.60;65.00
37806;DHT22;25082;50.870;0.022;2023-07-02T09:24:24;20.70;65.00
37806;DHT22;25082;50.870;0.022;2023-07-02T09:26:52;20.70;65.10
37806;DHT22;25082;50.870;0.022;2023-07-02T09:29:30;20.70;65.00
37806;DHT22;25082;50.870;0.022;2023-07-02T09:32:01;20.70;65.00
37806;DHT22;25082;50.870;0.022;2023-07-02T09:34:29;20.70;65.00
37806;DHT22;25082;50.870;0.022;2023-07-02T09:36:56;20.70;65.20
37806;DHT22;25082;50.870;0.022;2023-07-02T09:39:26;20.70;65.20
37806;DHT22;25082;50.870;0.022;2023-07-02T09:41:55;20.70;65.20
37806;DHT22;25082;50.870;0.022;2023-07-02T09:44:24;20.70;64.80
37806;DHT22;25082;50.870;0.022;2023-07-02T09:47:05;20.70;65.00
37806;DHT22;25082;50.870;0.022;2023-07-02T09:49:35;20.70;64.60
37806;DHT22;25082;50.870;0.022;2023-07-02T09:52:09;20.70;64.50
37806;DHT22;25082;50.870;0.022;2023-07-02T09:54:36;20.70;64.50
37806;DHT22;25082;50.870;0.022;2023-07-02T09:57:04;20.70;64.40
37806;DHT22;25082;50.870;0.022;2023-07-02T09:59:30;20.70;64.50
37806;DHT22;25082;50.870;0.022;2023-07-02T10:01:56;20.70;64.40
37806;DHT22;25082;50.870;0.022;2023-07-02T10:04:23;20.70;64.00
37806;DHT22;25082;50.870;0.022;2023-07-02T10:09:21;20.70;63.70
37806;DHT22;25082;50.870;0.022;2023-07-02T10:11:47;20.70;63.90
37806;DHT22;25082;50.870;0.022;2023-07-02T10:14:14;20.70;63.90
37806;DHT22;25082;50.870;0.022;2023-07-02T10:16:56;20.80;63.80
37806;DHT22;25082;50.870;0.022;2023-07-02T10:19:21;20.70;63.90
37806;DHT22;25082;50.870;0.022;2023-07-02T10:22:03;20.70;64.10
37806;DHT22;25082;50.870;0.022;2023-07-02T10:24:29;20.70;64.20
37806;DHT22;25082;50.870;0.022;2023-07-02T10:27:00;20.70;64.30
37806;DHT22;25082;50.870;0.022;2023-07-02T10:29:27;20.70;64.20
37806;DHT22;25082;50.870;0.022;2023-07-02T10:31:56;20.70;64.20
37806;DHT22;25082;50.870;0.022;2023-07-02T10:34:35;20.70;64.10
37806;DHT22;25082;50.870;0.022;2023-07-02T10:37:01;20.80;64.20
37806;DHT22;25082;50.870;0.022;2023-07-02T10:39:31;20.80;64.30
37806;DHT22;25082;50.870;0.022;2023-07-02T10:42:07;20.70;64.30
37806;DHT22;25082;50.870;0.022;2023-07-02T10:44:34;20.80;64.20
37806;DHT22;25082;50.870;0.022;2023-07-02T10:47:00;20.70;63.90
37806;DHT22;25082;50.870;0.022;2023-07-02T10:49:32;20.70;64.20
37806;DHT22;25082;50.870;0.022;2023-07-02T10:51:59;20.70;64.10
37806;DHT22;25082;50.870;0.022;2023-07-02T10:54:26;20.70;64.30
37806;DHT22;25082;50.870;0.022;2023-07-02T10:56:57;20.70;64.50
37806;DHT22;25082;50.870;0.022;2023-07-02T10:59:27;20.80;64.40
37806;DHT22;25082;50.870;0.022;2023-07-02T11:01:52;20.70;64.50
37806;DHT22;25082;50.870;0.022;2023-07-02T11:04:18;20.80;64.60
37806;DHT22;25082;50.870;0.022;2023-07-02T11:06:44;20.80;64.30
37806;DHT22;25082;50.870;0.022;2023-07-02T11:09:16;20.70;62.50
37806;DHT22;25082;50.870;0.022;2023-07-02T11:11:54;20.70;63.30
37806;DHT22;25082;50.870;0.022;2023-07-02T11:14:30;20.70;58.90
37806;DHT22;25082;50.870;0.022;2023-07-02T11:16:58;20.60;61.10
37806;DHT22;25082;50.870;0.022;2023-07-02T11:19:23;20.60;61.40
37806;DHT22;25082;50.870;0.022;2023-07-02T11:21:54;20.60;59.80
37806;DHT22;25082;50.870;0.022;2023-07-02T11:24:34;20.60;59.50
37806;DHT22;25082;50.870;0.022;2023-07-02T11:27:02;20.60;59.40
37806;DHT22;25082;50.870;0.022;2023-07-02T11:29:29;20.60;59.00
37806;DHT22;25082;50.870;0.022;2023-07-02T11:32:04;20.60;60.80
37806;DHT22;25082;50.870;0.022;2023-07-02T11:34:30;20.60;59.30
37806;DHT22;25082;50.870;0.022;2023-07-02T11:36:56;20.60;59.60
37806;DHT22;25082;50.870;0.022;2023-07-02T11:39:22;20.60;59.20
37806;DHT22;25082;50.870;0.022;2023-07-02T11:41:47;20.60;58.30
37806;DHT22;25082;50.870;0.022;2023-07-02T11:44:14;20.60;57.60
37806;DHT22;25082;50.870;0.022;2023-07-02T11:46:40;20.60;59.30
37806;DHT22;25082;50.870;0.022;2023-07-02T11:49:06;20.60;60.00
37806;DHT22;25082;50.870;0.022;2023-07-02T11:51:41;20.60;59.20
37806;DHT22;25082;50.870;0.022;2023-07-02T11:54:07;20.60;56.90
37806;DHT22;25082;50.870;0.022;2023-07-02T11:56:33;20.60;58.30
37806;DHT22;25082;50.870;0.022;2023-07-02T11:58:59;20.60;57.40
37806;DHT22;25082;50.870;0.022;2023-07-02T12:01:25;20.60;57.40
37806;DHT22;25082;50.870;0.022;2023-07-02T12:03:51;20.60;58.40
37806;DHT22;25082;50.870;0.022;2023-07-02T12:06:17;20.60;57.80
37806;DHT22;25082;50.870;0.022;2023-07-02T12:08:43;20.60;58.60
37806;DHT22;25082;50.870;0.022;2023-07-02T12:11:10;20.60;59.70
37806;DHT22;25082;50.870;0.022;2023-07-02T12:13:36;20.60;58.70
37806;DHT22;25082;50.870;0.022;2023-07-02T12:16:01;20.60;58.80
37806;DHT22;25082;50.870;0.022;2023-07-02T12:18:27;20.60;58.70
37806;DHT22;25082;50.870;0.022;2023-07-02T12:20:53;20.70;59.10
37806;DHT22;25082;50.870;0.022;2023-07-02T12:23:19;20.60;59.20
37806;DHT22;25082;50.870;0.022;2023-07-02T12:25:47;20.70;59.50
37806;DHT22;25082;50.870;0.022;2023-07-02T12:28:14;20.70;59.70
37806;DHT22;25082;50.870;0.022;2023-07-02T12:30:40;20.70;59.70
37806;DHT22;25082;50.870;0.022;2023-07-02T12:33:05;20.70;60.10
37806;DHT22;25082;50.870;0.022;2023-07-02T12:35:31;20.70;59.90
37806;DHT22;25082;50.870;0.022;2023-07-02T12:37:57;20.70;60.10
37806;DHT22;25082;50.870;0.022;2023-07-02T12:40:23;20.70;60.00
37806;DHT22;25082;50.870;0.022;2023-07-02T12:42:48;20.70;60.00
37806;DHT22;25082;50.870;0.022;2023-07-02T12:45:17;20.80;60.30
37806;DHT22;25082;50.870;0.022;2023-07-02T12:47:43;20.70;60.40
37806;DHT22;25082;50.870;0.022;2023-07-02T12:50:10;20.80;60.60
37806;DHT22;25082;50.870;0.022;2023-07-02T12:52:36;20.80;60.80
37806;DHT22;25082;50.870;0.022;2023-07-02T12:55:02;20.80;60.80
37806;DHT22;25082;50.870;0.022;2023-07-02T12:57:28;20.80;61.10
37806;DHT22;25082;50.870;0.022;2023-07-02T12:59:55;20.80;61.10
37806;DHT22;25082;50.870;0.022;2023-07-02T13:02:22;20.80;61.00
37806;DHT22;25082;50.870;0.022;2023-07-02T13:04:48;20.80;60.90
37806;DHT22;25082;50.870;0.022;2023-07-02T13:07:14;20.80;61.10
37806;DHT22;25082;50.870;0.022;2023-07-02T13:09:40;20.90;61.20
37806;DHT22;25082;50.870;0.022;2023-07-02T13:12:08;20.80;61.20
37806;DHT22;25082;50.870;0.022;2023-07-02T13:14:36;20.90;61.50
37806;DHT22;25082;50.870;0.022;2023-07-02T13:17:02;20.90;61.50
37806;DHT22;25082;50.870;0.022;2023-07-02T13:19:32;20.80;61.50
37806;DHT22;25082;50.870;0.022;2023-07-02T13:21:57;20.90;61.60
37806;DHT22;25082;50.870;0.022;2023-07-02T13:24:23;20.90;61.70
37806;DHT22;25082;50.870;0.022;2023-07-02T13:26:49;20.90;61.60
37806;DHT22;25082;50.870;0.022;2023-07-02T13:29:15;20.90;61.60
37806;DHT22;25082;50.870;0.022;2023-07-02T13:31:42;20.80;61.70
37806;DHT22;25082;50.870;0.022;2023-07-02T13:34:07;20.80;61.80
37806;DHT22;25082;50.870;0.022;2023-07-02T13:36:33;20.90;62.00
37806;DHT22;25082;50.870;0.022;2023-07-02T13:38:59;20.90;62.00
37806;DHT22;25082;50.870;0.022;2023-07-02T13:41:25;20.90;62.00
37806;DHT22;25082;50.870;0.022;2023-07-02T13:43:53;20.90;62.00
37806;DHT22;25082;50.870;0.022;2023-07-02T13:46:19;20.90;62.10
37806;DHT22;25082;50.870;0.022;2023-07-02T13:48:45;20.90;62.10
37806;DHT22;25082;50.870;0.022;2023-07-02T13:51:10;20.90;62.20
37806;DHT22;25082;50.870;0.022;2023-07-02T13:53:36;20.90;62.10
37806;DHT22;25082;50.870;0.022;2023-07-02T13:56:02;20.90;62.30
37806;DHT22;25082;50.870;0.022;2023-07-02T14:01:11;20.90;61.80
37806;DHT22;25082;50.870;0.022;2023-07-02T14:03:37;20.90;61.70
37806;DHT22;25082;50.870;0.022;2023-07-02T14:06:03;20.90;62.00
37806;DHT22;25082;50.870;0.022;2023-07-02T14:08:29;20.90;61.70
37806;DHT22;25082;50.870;0.022;2023-07-02T14:10:54;20.90;61.90
37806;DHT22;25082;50.870;0.022;2023-07-02T14:13:20;20.90;61.80
37806;DHT22;25082;50.870;0.022;2023-07-02T14:15:46;20.90;61.90
37806;DHT22;25082;50.870;0.022;2023-07-02T14:18:11;20.90;62.50
37806;DHT22;25082;50.870;0.022;2023-07-02T14:20:37;20.90;62.00
37806;DHT22;25082;50.870;0.022;2023-07-02T14:23:03;20.90;62.20
37806;DHT22;25082;50.870;0.022;2023-07-02T14:25:28;20.90;62.40
37806;DHT22;25082;50.870;0.022;2023-07-02T14:27:54;20.90;62.40
37806;DHT22;25082;50.870;0.022;2023-07-02T14:30:20;20.90;62.50
37806;DHT22;25082;50.870;0.022;2023-07-02T14:32:46;20.90;62.50
37806;DHT22;25082;50.870;0.022;2023-07-02T14:35:11;20.90;62.50
37806;DHT22;25082;50.870;0.022;2023-07-02T14:37:37;21.00;62.70
37806;DHT22;25082;50.870;0.022;2023-07-02T14:40:03;21.00;62.80
37806;DHT22;25082;50.870;0.022;2023-07-02T14:42:29;21.00;62.80
37806;DHT22;25082;50.870;0.022;2023-07-02T14:44:55;21.00;62.90
37806;DHT22;25082;50.870;0.022;2023-07-02T14:47:20;21.00;62.90
37806;DHT22;25082;50.870;0.022;2023-07-02T14:49:46;21.00;62.90
37806;DHT22;25082;50.870;0.022;2023-07-02T14:52:12;21.00;63.00
37806;DHT22;25082;50.870;0.022;2023-07-02T14:54:38;21.00;63.00
37806;DHT22;25082;50.870;0.022;2023-07-02T14:57:04;21.00;63.00
37806;DHT22;25082;50.870;0.022;2023-07-02T14:59:30;21.00;62.90
37806;DHT22;25082;50.870;0.022;2023-07-02T15:01:55;21.00;63.00
37806;DHT22;25082;50.870;0.022;2023-07-02T15:04:21;21.00;63.00
37806;DHT22;25082;50.870;0.022;2023-07-02T15:06:47;21.00;63.10
37806;DHT22;25082;50.870;0.022;2023-07-02T15:09:12;21.00;63.00
37806;DHT22;25082;50.870;0.022;2023-07-02T15:11:38;21.10;62.90
37806;DHT22;25082;50.870;0.022;2023-07-02T15:14:04;21.00;62.90
37806;DHT22;25082;50.870;0.022;2023-07-02T15:16:30;21.10;63.00
37806;DHT22;25082;50.870;0.022;2023-07-02T15:18:56;21.00;63.00
37806;DHT22;25082;50.870;0.022;2023-07-02T15:21:21;21.10;63.10
37806;DHT22;25082;50.870;0.022;2023-07-02T15:23:48;21.10;63.10
37806;DHT22;25082;50.870;0.022;2023-07-02T15:26:14;21.10;63.20
37806;DHT22;25082;50.870;0.022;2023-07-02T15:28:41;21.10;63.30
37806;DHT22;25082;50.870;0.022;2023-07-02T15:31:10;21.10;63.30
37806;DHT22;25082;50.870;0.022;2023-07-02T15:33:36;21.10;63.40